Hitchcock, Texas
Current Conditions -  °F | °C
As of 5:52 AM on Monday 22 Dec 2014 (Local Time) from KGLS Reporting Station
Few Clouds Few Clouds  
Wind Chill: 62°   Ceiling: Unl
Heat Index: 62°   Visibility: 10mi
Dew Point: 61°   Wind: 10mph
Humidity: 96%   Direction: 150°SSE
Pressure: 29.77"   Gusts: NA
Location:  29.35°N, 95.01°W
Report Text: KGLS 221152Z 15009KT 10SM FEW045 17/16 A2977 RMK AO1 SLP082 T01670161 10172 20156 56020
Loading
Personal Weather Stations






























Interactive Weather Map New forecast layout! Learn more

10-Day Weather Forecast

Advertisements
Track Severe Weather on mobile